sensor_id;sensor_type;location;lat;lon;timestamp;pressure;altitude;pressure_sealevel;temperature;humidity
55317;BME280;41178;48.956;8.130;2023-03-21T00:04:23;99882.44;;;15.25;39.77
55317;BME280;41178;48.956;8.130;2023-03-21T00:09:25;99881.00;;;15.29;40.17
55317;BME280;41178;48.956;8.130;2023-03-21T00:14:27;99880.78;;;15.76;40.09
55317;BME280;41178;48.956;8.130;2023-03-21T00:19:31;99857.13;;;16.10;39.90
55317;BME280;41178;48.956;8.130;2023-03-21T00:24:34;99843.94;;;16.27;38.16
55317;BME280;41178;48.956;8.130;2023-03-21T00:29:36;99851.59;;;15.14;39.80
55317;BME280;41178;48.956;8.130;2023-03-21T00:34:38;99877.97;;;14.78;40.77
55317;BME280;41178;48.956;8.130;2023-03-21T00:39:55;99849.28;;;15.69;40.09
55317;BME280;41178;48.956;8.130;2023-03-21T00:44:56;99851.44;;;15.02;39.77
55317;BME280;41178;48.956;8.130;2023-03-21T00:49:58;99851.38;;;15.16;39.56
55317;BME280;41178;48.956;8.130;2023-03-21T00:55:00;99855.34;;;15.06;39.44
55317;BME280;41178;48.956;8.130;2023-03-21T01:00:02;99859.41;;;15.29;39.64
55317;BME280;41178;48.956;8.130;2023-03-21T01:05:09;99816.66;;;15.39;39.23
55317;BME280;41178;48.956;8.130;2023-03-21T01:10:12;99850.66;;;14.75;40.14
55317;BME280;41178;48.956;8.130;2023-03-21T01:15:14;99846.97;;;14.49;41.28
55317;BME280;41178;48.956;8.130;2023-03-21T01:20:16;99844.88;;;14.58;41.01
55317;BME280;41178;48.956;8.130;2023-03-21T01:25:18;99844.88;;;14.51;41.33
55317;BME280;41178;48.956;8.130;2023-03-21T01:30:23;99832.41;;;14.84;41.90
55317;BME280;41178;48.956;8.130;2023-03-21T01:35:26;99811.91;;;14.63;41.72
55317;BME280;41178;48.956;8.130;2023-03-21T01:40:32;99805.78;;;15.14;40.41
55317;BME280;41178;48.956;8.130;2023-03-21T01:51:11;99826.25;;;14.50;42.04
55317;BME280;41178;48.956;8.130;2023-03-21T01:56:38;99809.31;;;14.23;41.38
55317;BME280;41178;48.956;8.130;2023-03-21T02:01:39;99808.56;;;14.74;40.36
55317;BME280;41178;48.956;8.130;2023-03-21T02:06:51;99811.06;;;14.69;40.88
55317;BME280;41178;48.956;8.130;2023-03-21T02:11:55;99795.59;;;13.84;41.49
55317;BME280;41178;48.956;8.130;2023-03-21T02:27:36;99826.72;;;12.90;43.14
55317;BME280;41178;48.956;8.130;2023-03-21T02:37:55;99791.22;;;12.31;43.14
55317;BME280;41178;48.956;8.130;2023-03-21T02:48:38;99807.34;;;11.09;46.74
55317;BME280;41178;48.956;8.130;2023-03-21T02:53:59;99827.72;;;11.61;46.59
55317;BME280;41178;48.956;8.130;2023-03-21T02:59:24;99838.47;;;12.04;44.74
55317;BME280;41178;48.956;8.130;2023-03-21T03:04:27;99827.09;;;12.87;43.79
55317;BME280;41178;48.956;8.130;2023-03-21T03:14:51;99777.41;;;13.99;42.42
55317;BME280;41178;48.956;8.130;2023-03-21T03:20:18;99774.72;;;11.78;44.64
55317;BME280;41178;48.956;8.130;2023-03-21T03:25:31;99807.03;;;11.55;45.69
55317;BME280;41178;48.956;8.130;2023-03-21T03:30:45;99749.59;;;10.55;48.00
55317;BME280;41178;48.956;8.130;2023-03-21T03:36:10;99759.38;;;9.94;49.33
55317;BME280;41178;48.956;8.130;2023-03-21T03:41:33;99795.13;;;12.00;46.41
55317;BME280;41178;48.956;8.130;2023-03-21T03:47:04;99819.13;;;10.02;50.06
55317;BME280;41178;48.956;8.130;2023-03-21T03:52:18;99768.41;;;9.47;50.91
55317;BME280;41178;48.956;8.130;2023-03-21T03:57:24;99811.94;;;11.15;47.49
55317;BME280;41178;48.956;8.130;2023-03-21T04:02:26;99831.13;;;11.18;47.68
55317;BME280;41178;48.956;8.130;2023-03-21T04:07:30;99806.47;;;12.52;45.32
55317;BME280;41178;48.956;8.130;2023-03-21T04:12:32;99812.72;;;12.38;46.06
55317;BME280;41178;48.956;8.130;2023-03-21T04:17:34;99829.88;;;12.37;44.88
55317;BME280;41178;48.956;8.130;2023-03-21T04:22:36;99839.44;;;12.74;44.53
55317;BME280;41178;48.956;8.130;2023-03-21T04:27:38;99857.38;;;11.74;45.71
55317;BME280;41178;48.956;8.130;2023-03-21T04:32:40;99877.97;;;11.74;46.28
55317;BME280;41178;48.956;8.130;2023-03-21T04:37:43;99859.34;;;10.61;47.45
55317;BME280;41178;48.956;8.130;2023-03-21T04:42:47;99819.41;;;12.77;43.75
55317;BME280;41178;48.956;8.130;2023-03-21T04:47:49;99830.63;;;12.87;44.19
55317;BME280;41178;48.956;8.130;2023-03-21T04:52:51;99764.16;;;10.52;46.73
55317;BME280;41178;48.956;8.130;2023-03-21T04:57:53;99842.13;;;12.25;45.53
55317;BME280;41178;48.956;8.130;2023-03-21T05:02:55;99855.47;;;11.53;45.03
55317;BME280;41178;48.956;8.130;2023-03-21T05:07:58;99854.09;;;12.22;45.05
55317;BME280;41178;48.956;8.130;2023-03-21T05:13:00;99881.63;;;11.66;45.87
55317;BME280;41178;48.956;8.130;2023-03-21T05:18:02;99869.31;;;10.91;47.13
55317;BME280;41178;48.956;8.130;2023-03-21T05:23:11;99874.94;;;11.25;46.48
55317;BME280;41178;48.956;8.130;2023-03-21T05:28:13;99843.69;;;11.91;44.85
55317;BME280;41178;48.956;8.130;2023-03-21T05:33:18;99880.53;;;11.82;45.42
55317;BME280;41178;48.956;8.130;2023-03-21T05:38:20;99853.69;;;11.97;44.68
55317;BME280;41178;48.956;8.130;2023-03-21T05:43:22;99796.53;;;9.81;48.27
55317;BME280;41178;48.956;8.130;2023-03-21T05:48:23;99852.91;;;9.71;49.50
55317;BME280;41178;48.956;8.130;2023-03-21T05:53:25;99892.25;;;10.09;48.96
55317;BME280;41178;48.956;8.130;2023-03-21T05:58:28;99859.81;;;9.26;50.78
55317;BME280;41178;48.956;8.130;2023-03-21T06:03:30;99838.78;;;11.36;47.62
55317;BME280;41178;48.956;8.130;2023-03-21T06:08:32;99866.41;;;11.22;46.38
55317;BME280;41178;48.956;8.130;2023-03-21T06:13:33;99853.25;;;12.71;43.74
55317;BME280;41178;48.956;8.130;2023-03-21T06:18:35;99859.44;;;12.44;44.41
55317;BME280;41178;48.956;8.130;2023-03-21T06:23:37;99924.06;;;11.33;45.64
55317;BME280;41178;48.956;8.130;2023-03-21T06:28:39;99916.34;;;11.74;45.10
55317;BME280;41178;48.956;8.130;2023-03-21T06:33:41;99888.41;;;12.05;45.15
55317;BME280;41178;48.956;8.130;2023-03-21T06:38:43;99885.25;;;10.31;47.80
55317;BME280;41178;48.956;8.130;2023-03-21T06:43:45;99880.25;;;12.13;45.08
55317;BME280;41178;48.956;8.130;2023-03-21T06:48:47;99900.19;;;12.76;44.79
55317;BME280;41178;48.956;8.130;2023-03-21T06:53:48;99857.69;;;10.07;48.11
55317;BME280;41178;48.956;8.130;2023-03-21T06:58:50;99892.16;;;10.63;46.96
55317;BME280;41178;48.956;8.130;2023-03-21T07:03:55;99889.34;;;12.41;45.33
55317;BME280;41178;48.956;8.130;2023-03-21T07:08:59;99924.97;;;11.25;46.86
55317;BME280;41178;48.956;8.130;2023-03-21T07:14:01;99836.84;;;10.03;49.28
55317;BME280;41178;48.956;8.130;2023-03-21T07:19:02;99908.44;;;11.88;46.57
55317;BME280;41178;48.956;8.130;2023-03-21T07:24:04;99907.16;;;11.17;48.07
55317;BME280;41178;48.956;8.130;2023-03-21T07:29:06;99872.81;;;11.57;48.35
55317;BME280;41178;48.956;8.130;2023-03-21T07:34:08;99891.56;;;11.57;47.34
55317;BME280;41178;48.956;8.130;2023-03-21T07:39:10;99857.78;;;12.21;46.50
55317;BME280;41178;48.956;8.130;2023-03-21T07:44:11;99883.00;;;11.47;47.87
55317;BME280;41178;48.956;8.130;2023-03-21T07:49:13;99884.50;;;12.79;45.65
55317;BME280;41178;48.956;8.130;2023-03-21T07:54:15;99877.56;;;12.63;44.80
55317;BME280;41178;48.956;8.130;2023-03-21T07:59:19;99914.03;;;13.49;44.74
55317;BME280;41178;48.956;8.130;2023-03-21T08:04:21;99904.44;;;12.98;45.06
55317;BME280;41178;48.956;8.130;2023-03-21T08:09:23;99894.59;;;13.12;44.82
55317;BME280;41178;48.956;8.130;2023-03-21T08:14:25;99923.72;;;11.57;46.71
55317;BME280;41178;48.956;8.130;2023-03-21T08:19:26;99920.38;;;13.90;44.28
55317;BME280;41178;48.956;8.130;2023-03-21T08:24:28;99898.78;;;13.21;44.99
55317;BME280;41178;48.956;8.130;2023-03-21T08:29:30;99895.34;;;13.34;44.98
55317;BME280;41178;48.956;8.130;2023-03-21T08:34:32;99908.31;;;13.65;44.82
55317;BME280;41178;48.956;8.130;2023-03-21T08:39:34;99920.72;;;12.40;45.93
55317;BME280;41178;48.956;8.130;2023-03-21T08:44:35;99901.19;;;12.74;45.03
55317;BME280;41178;48.956;8.130;2023-03-21T08:49:39;99923.53;;;14.13;43.84
55317;BME280;41178;48.956;8.130;2023-03-21T08:54:42;99911.13;;;14.32;43.21
55317;BME280;41178;48.956;8.130;2023-03-21T08:59:45;99909.88;;;12.77;45.02
55317;BME280;41178;48.956;8.130;2023-03-21T09:04:47;99897.06;;;14.17;43.64
55317;BME280;41178;48.956;8.130;2023-03-21T09:09:49;99901.44;;;13.56;44.24
55317;BME280;41178;48.956;8.130;2023-03-21T09:15:13;99871.38;;;13.39;44.65
55317;BME280;41178;48.956;8.130;2023-03-21T09:20:16;99921.75;;;15.59;42.06
55317;BME280;41178;48.956;8.130;2023-03-21T09:25:19;99912.81;;;15.97;41.44
55317;BME280;41178;48.956;8.130;2023-03-21T09:30:21;99864.28;;;13.93;44.82
55317;BME280;41178;48.956;8.130;2023-03-21T09:35:26;99897.47;;;15.98;42.09
55317;BME280;41178;48.956;8.130;2023-03-21T09:40:44;99866.00;;;15.85;41.60
55317;BME280;41178;48.956;8.130;2023-03-21T09:45:53;99852.47;;;16.17;41.32
55317;BME280;41178;48.956;8.130;2023-03-21T09:50:58;99807.34;;;14.70;42.88
55317;BME280;41178;48.956;8.130;2023-03-21T09:56:01;99857.53;;;16.06;41.35
55317;BME280;41178;48.956;8.130;2023-03-21T10:01:10;99828.34;;;14.34;43.69
55317;BME280;41178;48.956;8.130;2023-03-21T10:06:23;99805.34;;;15.62;41.90
55317;BME280;41178;48.956;8.130;2023-03-21T10:11:39;99856.06;;;14.21;44.19
55317;BME280;41178;48.956;8.130;2023-03-21T10:16:45;99846.91;;;13.82;44.94
55317;BME280;41178;48.956;8.130;2023-03-21T10:21:48;99790.34;;;12.87;45.24
55317;BME280;41178;48.956;8.130;2023-03-21T10:27:06;99824.09;;;12.68;46.08
55317;BME280;41178;48.956;8.130;2023-03-21T10:32:11;99782.59;;;15.06;43.20
55317;BME280;41178;48.956;8.130;2023-03-21T10:37:14;99774.94;;;14.18;43.01
55317;BME280;41178;48.956;8.130;2023-03-21T10:42:23;99797.75;;;16.35;41.16
55317;BME280;41178;48.956;8.130;2023-03-21T10:47:29;99776.63;;;16.00;41.62
55317;BME280;41178;48.956;8.130;2023-03-21T10:52:32;99777.16;;;15.51;43.23
55317;BME280;41178;48.956;8.130;2023-03-21T10:57:34;99780.97;;;14.99;42.82
55317;BME280;41178;48.956;8.130;2023-03-21T11:06:32;99864.25;;;11.47;48.30
55317;BME280;41178;48.956;8.130;2023-03-21T11:11:39;99810.75;;;12.82;46.61
55317;BME280;41178;48.956;8.130;2023-03-21T11:16:42;99787.28;;;12.97;45.75
55317;BME280;41178;48.956;8.130;2023-03-21T11:21:44;99794.19;;;13.13;46.45
55317;BME280;41178;48.956;8.130;2023-03-21T11:26:48;99797.19;;;12.55;45.91
55317;BME280;41178;48.956;8.130;2023-03-21T11:31:51;99770.91;;;13.34;44.66
55317;BME280;41178;48.956;8.130;2023-03-21T11:36:57;99788.53;;;14.56;43.56
55317;BME280;41178;48.956;8.130;2023-03-21T11:42:00;99754.63;;;13.55;44.87
55317;BME280;41178;48.956;8.130;2023-03-21T11:47:01;99767.34;;;14.73;42.92
55317;BME280;41178;48.956;8.130;2023-03-21T11:52:28;99785.50;;;16.07;41.24
55317;BME280;41178;48.956;8.130;2023-03-21T12:13:40;99736.03;;;13.87;42.76
55317;BME280;41178;48.956;8.130;2023-03-21T12:18:58;99724.34;;;14.47;42.41
55317;BME280;41178;48.956;8.130;2023-03-21T12:24:22;99723.47;;;15.43;41.08
55317;BME280;41178;48.956;8.130;2023-03-21T12:39:38;99684.22;;;14.32;41.04
55317;BME280;41178;48.956;8.130;2023-03-21T12:44:44;99673.41;;;15.61;40.43
55317;BME280;41178;48.956;8.130;2023-03-21T12:50:31;99689.16;;;14.42;40.98
55317;BME280;41178;48.956;8.130;2023-03-21T12:55:24;99681.53;;;16.41;38.86
55317;BME280;41178;48.956;8.130;2023-03-21T13:10:37;99624.06;;;16.83;37.62
55317;BME280;41178;48.956;8.130;2023-03-21T13:21:09;99610.66;;;16.46;39.25
55317;BME280;41178;48.956;8.130;2023-03-21T13:26:14;99570.13;;;16.46;37.32
55317;BME280;41178;48.956;8.130;2023-03-21T13:31:23;99590.06;;;18.24;35.02
55317;BME280;41178;48.956;8.130;2023-03-21T13:36:29;99517.00;;;17.24;37.67
55317;BME280;41178;48.956;8.130;2023-03-21T13:41:35;99536.53;;;15.56;37.91
55317;BME280;41178;48.956;8.130;2023-03-21T13:46:44;99549.25;;;16.53;38.71
55317;BME280;41178;48.956;8.130;2023-03-21T13:51:56;99524.19;;;17.95;37.15
55317;BME280;41178;48.956;8.130;2023-03-21T13:57:03;99555.63;;;15.55;39.27
55317;BME280;41178;48.956;8.130;2023-03-21T14:07:23;99499.59;;;16.24;38.97
55317;BME280;41178;48.956;8.130;2023-03-21T14:12:29;99505.94;;;15.99;39.13
55317;BME280;41178;48.956;8.130;2023-03-21T14:17:35;99520.44;;;15.43;40.61
55317;BME280;41178;48.956;8.130;2023-03-21T14:22:40;99518.66;;;15.11;40.28
55317;BME280;41178;48.956;8.130;2023-03-21T14:27:45;99493.38;;;15.56;39.00
55317;BME280;41178;48.956;8.130;2023-03-21T14:32:48;99480.25;;;15.60;38.94
55317;BME280;41178;48.956;8.130;2023-03-21T14:37:50;99498.06;;;14.67;40.32
55317;BME280;41178;48.956;8.130;2023-03-21T14:42:52;99509.97;;;14.84;38.92
55317;BME280;41178;48.956;8.130;2023-03-21T14:53:35;99459.34;;;16.65;37.98
55317;BME280;41178;48.956;8.130;2023-03-21T14:58:37;99500.13;;;15.40;39.89
55317;BME280;41178;48.956;8.130;2023-03-21T15:03:39;99483.22;;;16.07;39.27
55317;BME280;41178;48.956;8.130;2023-03-21T15:09:02;99452.00;;;14.50;40.51
55317;BME280;41178;48.956;8.130;2023-03-21T15:14:11;99462.25;;;16.21;39.44
55317;BME280;41178;48.956;8.130;2023-03-21T15:19:17;99455.81;;;16.64;38.91
55317;BME280;41178;48.956;8.130;2023-03-21T15:24:27;99393.41;;;17.36;37.30
55317;BME280;41178;48.956;8.130;2023-03-21T15:29:32;99458.63;;;15.66;39.05
55317;BME280;41178;48.956;8.130;2023-03-21T15:34:35;99437.91;;;14.80;40.61
55317;BME280;41178;48.956;8.130;2023-03-21T15:39:37;99429.66;;;15.00;42.67
55317;BME280;41178;48.956;8.130;2023-03-21T15:44:46;99398.25;;;15.67;41.65
55317;BME280;41178;48.956;8.130;2023-03-21T15:49:53;99402.97;;;14.48;43.74
55317;BME280;41178;48.956;8.130;2023-03-21T15:54:56;99377.59;;;17.05;40.43
55317;BME280;41178;48.956;8.130;2023-03-21T16:10:30;99373.13;;;16.98;40.87
55317;BME280;41178;48.956;8.130;2023-03-21T16:15:32;99426.88;;;15.06;43.22
55317;BME280;41178;48.956;8.130;2023-03-21T16:20:38;99424.09;;;14.94;42.98
55317;BME280;41178;48.956;8.130;2023-03-21T16:25:42;99386.91;;;14.02;44.40
55317;BME280;41178;48.956;8.130;2023-03-21T16:30:44;99420.81;;;14.92;43.30
55317;BME280;41178;48.956;8.130;2023-03-21T16:35:46;99414.25;;;15.07;43.08
55317;BME280;41178;48.956;8.130;2023-03-21T16:40:48;99406.56;;;14.60;43.97
55317;BME280;41178;48.956;8.130;2023-03-21T16:45:51;99381.88;;;15.81;42.29
55317;BME280;41178;48.956;8.130;2023-03-21T16:50:53;99351.16;;;16.36;41.22
55317;BME280;41178;48.956;8.130;2023-03-21T16:55:55;99362.66;;;16.78;40.85
55317;BME280;41178;48.956;8.130;2023-03-21T17:01:02;99340.97;;;17.26;39.81
55317;BME280;41178;48.956;8.130;2023-03-21T17:06:04;99392.50;;;16.18;41.37
55317;BME280;41178;48.956;8.130;2023-03-21T17:11:11;99389.66;;;16.31;41.63
55317;BME280;41178;48.956;8.130;2023-03-21T17:16:17;99357.19;;;17.38;40.80
55317;BME280;41178;48.956;8.130;2023-03-21T17:21:22;99364.09;;;17.05;41.22
55317;BME280;41178;48.956;8.130;2023-03-21T17:26:26;99386.75;;;17.97;40.19
55317;BME280;41178;48.956;8.130;2023-03-21T17:31:35;99380.28;;;17.57;40.98
55317;BME280;41178;48.956;8.130;2023-03-21T17:36:39;99373.91;;;15.19;43.08
55317;BME280;41178;48.956;8.130;2023-03-21T17:41:42;99421.94;;;15.40;43.33
55317;BME280;41178;48.956;8.130;2023-03-21T17:46:44;99395.72;;;15.84;42.56
55317;BME280;41178;48.956;8.130;2023-03-21T17:51:46;99363.47;;;17.67;40.52
55317;BME280;41178;48.956;8.130;2023-03-21T17:56:48;99404.09;;;15.64;42.45
55317;BME280;41178;48.956;8.130;2023-03-21T18:01:50;99441.66;;;15.78;42.86
55317;BME280;41178;48.956;8.130;2023-03-21T18:06:52;99401.94;;;15.85;42.26
55317;BME280;41178;48.956;8.130;2023-03-21T18:11:57;99386.59;;;16.39;41.64
55317;BME280;41178;48.956;8.130;2023-03-21T18:16:59;99428.19;;;15.78;42.51
55317;BME280;41178;48.956;8.130;2023-03-21T18:22:01;99428.94;;;15.66;43.13
55317;BME280;41178;48.956;8.130;2023-03-21T18:27:04;99445.16;;;15.04;43.44
55317;BME280;41178;48.956;8.130;2023-03-21T18:32:07;99435.91;;;14.04;44.44
55317;BME280;41178;48.956;8.130;2023-03-21T18:37:09;99423.38;;;15.24;43.04
55317;BME280;41178;48.956;8.130;2023-03-21T18:42:13;99434.34;;;13.90;45.13
55317;BME280;41178;48.956;8.130;2023-03-21T18:47:23;99467.56;;;14.48;44.49
55317;BME280;41178;48.956;8.130;2023-03-21T18:52:25;99466.91;;;14.52;44.39
55317;BME280;41178;48.956;8.130;2023-03-21T18:57:27;99458.06;;;14.07;45.07
55317;BME280;41178;48.956;8.130;2023-03-21T19:02:44;99418.34;;;16.14;42.32
55317;BME280;41178;48.956;8.130;2023-03-21T19:07:49;99408.22;;;16.51;41.64
55317;BME280;41178;48.956;8.130;2023-03-21T19:12:52;99458.75;;;14.34;44.86
55317;BME280;41178;48.956;8.130;2023-03-21T19:17:55;99413.78;;;17.04;40.88
55317;BME280;41178;48.956;8.130;2023-03-21T19:23:16;99453.28;;;15.41;41.88
55317;BME280;41178;48.956;8.130;2023-03-21T19:28:19;99423.19;;;17.01;40.83
55317;BME280;41178;48.956;8.130;2023-03-21T19:33:21;99443.69;;;16.55;41.18
55317;BME280;41178;48.956;8.130;2023-03-21T19:38:23;99402.47;;;16.59;41.24
55317;BME280;41178;48.956;8.130;2023-03-21T19:43:24;99465.16;;;13.94;44.70
55317;BME280;41178;48.956;8.130;2023-03-21T19:48:33;99497.91;;;13.78;44.61
55317;BME280;41178;48.956;8.130;2023-03-21T19:53:38;99489.72;;;15.07;43.61
55317;BME280;41178;48.956;8.130;2023-03-21T19:58:40;99471.16;;;13.31;45.57
55317;BME280;41178;48.956;8.130;2023-03-21T20:03:42;99496.19;;;14.35;43.85
55317;BME280;41178;48.956;8.130;2023-03-21T20:08:48;99458.59;;;15.29;42.86
55317;BME280;41178;48.956;8.130;2023-03-21T20:14:09;99435.13;;;15.48;42.33
55317;BME280;41178;48.956;8.130;2023-03-21T20:19:12;99485.31;;;15.31;42.63
55317;BME280;41178;48.956;8.130;2023-03-21T20:24:15;99474.28;;;15.58;42.57
55317;BME280;41178;48.956;8.130;2023-03-21T20:29:17;99427.72;;;15.81;41.58
55317;BME280;41178;48.956;8.130;2023-03-21T20:34:38;99432.41;;;16.46;40.62
55317;BME280;41178;48.956;8.130;2023-03-21T20:39:41;99505.41;;;15.72;42.32
55317;BME280;41178;48.956;8.130;2023-03-21T20:44:42;99484.69;;;15.73;42.21
55317;BME280;41178;48.956;8.130;2023-03-21T20:49:59;99487.88;;;15.44;42.91
55317;BME280;41178;48.956;8.130;2023-03-21T20:55:00;99501.75;;;15.04;43.64
55317;BME280;41178;48.956;8.130;2023-03-21T21:00:04;99503.69;;;14.33;44.05
55317;BME280;41178;48.956;8.130;2023-03-21T21:05:09;99513.53;;;14.14;44.59
55317;BME280;41178;48.956;8.130;2023-03-21T21:10:27;99511.13;;;14.70;44.11
55317;BME280;41178;48.956;8.130;2023-03-21T21:15:30;99493.06;;;15.02;43.02
55317;BME280;41178;48.956;8.130;2023-03-21T21:20:34;99471.25;;;15.84;41.91
55317;BME280;41178;48.956;8.130;2023-03-21T21:25:37;99524.22;;;15.17;42.51
55317;BME280;41178;48.956;8.130;2023-03-21T21:30:38;99472.03;;;15.55;41.81
55317;BME280;41178;48.956;8.130;2023-03-21T21:35:42;99518.09;;;14.77;43.32
55317;BME280;41178;48.956;8.130;2023-03-21T21:40:51;99450.75;;;12.70;46.63
55317;BME280;41178;48.956;8.130;2023-03-21T21:45:53;99464.81;;;15.05;42.93
55317;BME280;41178;48.956;8.130;2023-03-21T21:50:55;99500.38;;;14.63;43.26
55317;BME280;41178;48.956;8.130;2023-03-21T21:55:57;99500.13;;;15.22;43.00
55317;BME280;41178;48.956;8.130;2023-03-21T22:00:59;99450.34;;;15.24;42.08
55317;BME280;41178;48.956;8.130;2023-03-21T22:06:02;99533.25;;;15.04;43.24
55317;BME280;41178;48.956;8.130;2023-03-21T22:11:05;99517.19;;;14.90;43.49
55317;BME280;41178;48.956;8.130;2023-03-21T22:16:07;99495.25;;;15.56;42.39
55317;BME280;41178;48.956;8.130;2023-03-21T22:21:09;99462.66;;;13.27;45.29
55317;BME280;41178;48.956;8.130;2023-03-21T22:26:10;99501.91;;;14.77;42.98
55317;BME280;41178;48.956;8.130;2023-03-21T22:31:14;99470.31;;;15.17;42.77
55317;BME280;41178;48.956;8.130;2023-03-21T22:36:16;99509.88;;;14.98;43.11
55317;BME280;41178;48.956;8.130;2023-03-21T22:41:18;99500.47;;;15.87;41.68
55317;BME280;41178;48.956;8.130;2023-03-21T22:46:19;99493.63;;;15.48;42.32
55317;BME280;41178;48.956;8.130;2023-03-21T22:51:21;99450.09;;;13.08;45.59
55317;BME280;41178;48.956;8.130;2023-03-21T22:56:23;99406.09;;;11.54;48.70
55317;BME280;41178;48.956;8.130;2023-03-21T23:01:24;99520.56;;;13.43;45.88
55317;BME280;41178;48.956;8.130;2023-03-21T23:06:26;99485.75;;;14.77;42.97
55317;BME280;41178;48.956;8.130;2023-03-21T23:11:28;99521.69;;;14.33;43.83
55317;BME280;41178;48.956;8.130;2023-03-21T23:16:30;99534.06;;;14.40;43.73
55317;BME280;41178;48.956;8.130;2023-03-21T23:21:32;99520.69;;;14.59;43.56
55317;BME280;41178;48.956;8.130;2023-03-21T23:26:34;99494.34;;;15.18;42.50
55317;BME280;41178;48.956;8.130;2023-03-21T23:31:36;99502.16;;;13.00;44.42
55317;BME280;41178;48.956;8.130;2023-03-21T23:36:38;99533.41;;;13.28;45.11
55317;BME280;41178;48.956;8.130;2023-03-21T23:41:40;99503.31;;;12.37;46.24
55317;BME280;41178;48.956;8.130;2023-03-21T23:46:43;99505.19;;;11.47;49.28
55317;BME280;41178;48.956;8.130;2023-03-21T23:51:44;99435.19;;;10.65;49.81
55317;BME280;41178;48.956;8.130;2023-03-21T23:56:47;99524.28;;;11.66;47.67
